sensor_id;sensor_type;location;lat;lon;timestamp;P1;durP1;ratioP1;P2;durP2;ratioP2
68744;SDS011;55731;45.456;11.064;2022-10-16T00:02:09;47.70;;;27.60;;
68744;SDS011;55731;45.456;11.064;2022-10-16T00:04:46;49.30;;;29.00;;
68744;SDS011;55731;45.456;11.064;2022-10-16T00:07:23;51.60;;;29.30;;
68744;SDS011;55731;45.456;11.064;2022-10-16T00:10:01;47.20;;;28.10;;
68744;SDS011;55731;45.456;11.064;2022-10-16T00:12:39;48.40;;;27.30;;
68744;SDS011;55731;45.456;11.064;2022-10-16T00:15:16;46.30;;;26.90;;
68744;SDS011;55731;45.456;11.064;2022-10-16T00:17:53;46.90;;;26.00;;
68744;SDS011;55731;45.456;11.064;2022-10-16T00:20:30;46.20;;;28.70;;
68744;SDS011;55731;45.456;11.064;2022-10-16T00:23:09;50.80;;;28.60;;
68744;SDS011;55731;45.456;11.064;2022-10-16T00:25:53;51.60;;;28.80;;
68744;SDS011;55731;45.456;11.064;2022-10-16T00:28:31;47.50;;;27.70;;
68744;SDS011;55731;45.456;11.064;2022-10-16T00:31:09;48.80;;;28.30;;
68744;SDS011;55731;45.456;11.064;2022-10-16T00:33:46;54.80;;;28.00;;
68744;SDS011;55731;45.456;11.064;2022-10-16T00:36:24;53.20;;;30.20;;
68744;SDS011;55731;45.456;11.064;2022-10-16T00:39:01;53.00;;;28.40;;
68744;SDS011;55731;45.456;11.064;2022-10-16T00:41:37;50.80;;;28.30;;
68744;SDS011;55731;45.456;11.064;2022-10-16T00:44:44;50.70;;;28.10;;
68744;SDS011;55731;45.456;11.064;2022-10-16T00:47:29;50.50;;;27.90;;
68744;SDS011;55731;45.456;11.064;2022-10-16T00:50:10;48.90;;;28.90;;
68744;SDS011;55731;45.456;11.064;2022-10-16T00:52:51;53.60;;;29.50;;
68744;SDS011;55731;45.456;11.064;2022-10-16T00:55:28;50.00;;;27.40;;
68744;SDS011;55731;45.456;11.064;2022-10-16T00:58:12;52.30;;;28.60;;
68744;SDS011;55731;45.456;11.064;2022-10-16T01:00:49;53.20;;;28.30;;
68744;SDS011;55731;45.456;11.064;2022-10-16T01:03:31;51.40;;;27.10;;
68744;SDS011;55731;45.456;11.064;2022-10-16T01:09:17;47.90;;;27.50;;
68744;SDS011;55731;45.456;11.064;2022-10-16T01:12:04;55.50;;;30.20;;
68744;SDS011;55731;45.456;11.064;2022-10-16T01:14:48;54.00;;;29.40;;
68744;SDS011;55731;45.456;11.064;2022-10-16T01:17:32;52.70;;;29.70;;
68744;SDS011;55731;45.456;11.064;2022-10-16T01:20:20;56.30;;;29.50;;
68744;SDS011;55731;45.456;11.064;2022-10-16T01:23:07;51.10;;;28.90;;
68744;SDS011;55731;45.456;11.064;2022-10-16T01:26:13;50.90;;;28.70;;
68744;SDS011;55731;45.456;11.064;2022-10-16T01:29:12;53.80;;;29.40;;
68744;SDS011;55731;45.456;11.064;2022-10-16T01:31:57;57.30;;;31.30;;
68744;SDS011;55731;45.456;11.064;2022-10-16T01:34:42;54.10;;;30.30;;
68744;SDS011;55731;45.456;11.064;2022-10-16T01:37:32;58.10;;;30.30;;
68744;SDS011;55731;45.456;11.064;2022-10-16T01:40:14;53.50;;;30.60;;
68744;SDS011;55731;45.456;11.064;2022-10-16T01:42:56;53.30;;;29.40;;
68744;SDS011;55731;45.456;11.064;2022-10-16T01:45:35;56.10;;;30.40;;
68744;SDS011;55731;45.456;11.064;2022-10-16T01:48:17;53.40;;;30.10;;
68744;SDS011;55731;45.456;11.064;2022-10-16T01:51:02;50.30;;;29.20;;
68744;SDS011;55731;45.456;11.064;2022-10-16T01:53:40;51.70;;;29.60;;
68744;SDS011;55731;45.456;11.064;2022-10-16T01:56:22;49.00;;;29.50;;
68744;SDS011;55731;45.456;11.064;2022-10-16T01:59:16;58.70;;;31.10;;
68744;SDS011;55731;45.456;11.064;2022-10-16T02:01:58;56.80;;;31.50;;
68744;SDS011;55731;45.456;11.064;2022-10-16T02:04:42;56.30;;;30.80;;
68744;SDS011;55731;45.456;11.064;2022-10-16T02:07:21;59.60;;;30.10;;
68744;SDS011;55731;45.456;11.064;2022-10-16T02:09:59;51.90;;;29.20;;
68744;SDS011;55731;45.456;11.064;2022-10-16T02:12:38;53.80;;;30.30;;
68744;SDS011;55731;45.456;11.064;2022-10-16T02:15:18;53.30;;;29.10;;
68744;SDS011;55731;45.456;11.064;2022-10-16T02:17:55;57.70;;;30.70;;
68744;SDS011;55731;45.456;11.064;2022-10-16T02:20:36;55.20;;;31.00;;
68744;SDS011;55731;45.456;11.064;2022-10-16T02:23:24;53.70;;;29.40;;
68744;SDS011;55731;45.456;11.064;2022-10-16T02:26:09;56.90;;;31.30;;
68744;SDS011;55731;45.456;11.064;2022-10-16T02:28:57;54.00;;;28.70;;
68744;SDS011;55731;45.456;11.064;2022-10-16T02:31:43;50.20;;;30.00;;
68744;SDS011;55731;45.456;11.064;2022-10-16T02:34:26;54.20;;;29.00;;
68744;SDS011;55731;45.456;11.064;2022-10-16T02:37:07;55.90;;;30.10;;
68744;SDS011;55731;45.456;11.064;2022-10-16T02:39:44;58.20;;;31.20;;
68744;SDS011;55731;45.456;11.064;2022-10-16T02:42:27;52.90;;;29.00;;
68744;SDS011;55731;45.456;11.064;2022-10-16T02:45:11;53.10;;;29.30;;
68744;SDS011;55731;45.456;11.064;2022-10-16T02:47:49;57.40;;;30.70;;
68744;SDS011;55731;45.456;11.064;2022-10-16T02:50:26;53.40;;;27.40;;
68744;SDS011;55731;45.456;11.064;2022-10-16T02:53:03;52.00;;;28.20;;
68744;SDS011;55731;45.456;11.064;2022-10-16T02:55:40;55.10;;;28.60;;
68744;SDS011;55731;45.456;11.064;2022-10-16T02:58:17;54.00;;;28.40;;
68744;SDS011;55731;45.456;11.064;2022-10-16T03:00:54;58.00;;;30.10;;
68744;SDS011;55731;45.456;11.064;2022-10-16T03:03:31;53.70;;;29.70;;
68744;SDS011;55731;45.456;11.064;2022-10-16T03:06:08;49.40;;;29.10;;
68744;SDS011;55731;45.456;11.064;2022-10-16T03:08:45;55.50;;;29.10;;
68744;SDS011;55731;45.456;11.064;2022-10-16T03:11:22;53.50;;;29.60;;
68744;SDS011;55731;45.456;11.064;2022-10-16T03:13:59;52.20;;;29.00;;
68744;SDS011;55731;45.456;11.064;2022-10-16T03:16:35;48.30;;;27.90;;
68744;SDS011;55731;45.456;11.064;2022-10-16T03:19:12;52.70;;;29.10;;
68744;SDS011;55731;45.456;11.064;2022-10-16T03:21:49;51.80;;;28.50;;
68744;SDS011;55731;45.456;11.064;2022-10-16T03:24:26;48.10;;;27.00;;
68744;SDS011;55731;45.456;11.064;2022-10-16T03:27:04;52.80;;;28.90;;
68744;SDS011;55731;45.456;11.064;2022-10-16T03:29:41;54.10;;;30.40;;
68744;SDS011;55731;45.456;11.064;2022-10-16T03:32:17;52.60;;;28.80;;
68744;SDS011;55731;45.456;11.064;2022-10-16T03:34:56;53.00;;;29.10;;
68744;SDS011;55731;45.456;11.064;2022-10-16T03:37:33;58.20;;;31.30;;
68744;SDS011;55731;45.456;11.064;2022-10-16T03:40:13;53.50;;;28.60;;
68744;SDS011;55731;45.456;11.064;2022-10-16T03:42:51;56.30;;;30.40;;
68744;SDS011;55731;45.456;11.064;2022-10-16T03:45:29;56.70;;;31.00;;
68744;SDS011;55731;45.456;11.064;2022-10-16T03:48:07;56.60;;;31.90;;
68744;SDS011;55731;45.456;11.064;2022-10-16T03:50:44;54.50;;;29.70;;
68744;SDS011;55731;45.456;11.064;2022-10-16T03:53:22;55.60;;;30.50;;
68744;SDS011;55731;45.456;11.064;2022-10-16T03:55:59;58.10;;;30.20;;
68744;SDS011;55731;45.456;11.064;2022-10-16T03:58:36;55.50;;;30.10;;
68744;SDS011;55731;45.456;11.064;2022-10-16T04:01:13;57.00;;;30.10;;
68744;SDS011;55731;45.456;11.064;2022-10-16T04:03:50;55.30;;;29.90;;
68744;SDS011;55731;45.456;11.064;2022-10-16T04:06:27;57.60;;;31.00;;
68744;SDS011;55731;45.456;11.064;2022-10-16T04:09:05;57.80;;;31.10;;
68744;SDS011;55731;45.456;11.064;2022-10-16T04:11:41;60.30;;;31.00;;
68744;SDS011;55731;45.456;11.064;2022-10-16T04:14:18;55.80;;;31.10;;
68744;SDS011;55731;45.456;11.064;2022-10-16T04:16:55;57.60;;;32.00;;
68744;SDS011;55731;45.456;11.064;2022-10-16T04:19:32;62.70;;;32.60;;
68744;SDS011;55731;45.456;11.064;2022-10-16T04:22:08;56.20;;;29.70;;
68744;SDS011;55731;45.456;11.064;2022-10-16T04:24:45;59.40;;;31.60;;
68744;SDS011;55731;45.456;11.064;2022-10-16T04:27:22;58.80;;;32.00;;
68744;SDS011;55731;45.456;11.064;2022-10-16T04:30:00;60.30;;;31.80;;
68744;SDS011;55731;45.456;11.064;2022-10-16T04:32:37;56.80;;;31.50;;
68744;SDS011;55731;45.456;11.064;2022-10-16T04:35:13;61.10;;;31.50;;
68744;SDS011;55731;45.456;11.064;2022-10-16T04:37:50;59.10;;;33.20;;
68744;SDS011;55731;45.456;11.064;2022-10-16T04:40:27;63.10;;;33.60;;
68744;SDS011;55731;45.456;11.064;2022-10-16T04:43:08;61.70;;;31.70;;
68744;SDS011;55731;45.456;11.064;2022-10-16T04:45:44;67.40;;;33.30;;
68744;SDS011;55731;45.456;11.064;2022-10-16T04:48:22;59.20;;;32.00;;
68744;SDS011;55731;45.456;11.064;2022-10-16T04:50:58;61.00;;;33.30;;
68744;SDS011;55731;45.456;11.064;2022-10-16T04:53:35;59.00;;;32.10;;
68744;SDS011;55731;45.456;11.064;2022-10-16T04:56:12;64.10;;;33.20;;
68744;SDS011;55731;45.456;11.064;2022-10-16T04:58:49;61.50;;;33.30;;
68744;SDS011;55731;45.456;11.064;2022-10-16T05:01:25;68.60;;;35.30;;
68744;SDS011;55731;45.456;11.064;2022-10-16T05:04:02;65.80;;;34.20;;
68744;SDS011;55731;45.456;11.064;2022-10-16T05:06:39;60.10;;;32.90;;
68744;SDS011;55731;45.456;11.064;2022-10-16T05:09:16;66.60;;;32.60;;
68744;SDS011;55731;45.456;11.064;2022-10-16T05:11:53;60.70;;;33.20;;
68744;SDS011;55731;45.456;11.064;2022-10-16T05:14:31;63.60;;;33.60;;
68744;SDS011;55731;45.456;11.064;2022-10-16T05:17:08;63.80;;;31.80;;
68744;SDS011;55731;45.456;11.064;2022-10-16T05:19:45;62.70;;;33.20;;
68744;SDS011;55731;45.456;11.064;2022-10-16T05:22:21;61.70;;;32.90;;
68744;SDS011;55731;45.456;11.064;2022-10-16T05:24:57;63.10;;;33.20;;
68744;SDS011;55731;45.456;11.064;2022-10-16T05:27:34;61.50;;;33.50;;
68744;SDS011;55731;45.456;11.064;2022-10-16T05:30:13;60.50;;;32.70;;
68744;SDS011;55731;45.456;11.064;2022-10-16T05:32:51;61.10;;;33.80;;
68744;SDS011;55731;45.456;11.064;2022-10-16T05:35:28;64.80;;;34.60;;
68744;SDS011;55731;45.456;11.064;2022-10-16T05:38:04;63.60;;;34.10;;
68744;SDS011;55731;45.456;11.064;2022-10-16T05:40:41;59.40;;;31.50;;
68744;SDS011;55731;45.456;11.064;2022-10-16T05:43:24;65.10;;;34.80;;
68744;SDS011;55731;45.456;11.064;2022-10-16T05:46:02;63.50;;;33.20;;
68744;SDS011;55731;45.456;11.064;2022-10-16T05:48:39;68.40;;;33.20;;
68744;SDS011;55731;45.456;11.064;2022-10-16T05:51:16;67.30;;;34.90;;
68744;SDS011;55731;45.456;11.064;2022-10-16T05:53:54;64.20;;;34.80;;
68744;SDS011;55731;45.456;11.064;2022-10-16T05:56:30;64.20;;;32.50;;
68744;SDS011;55731;45.456;11.064;2022-10-16T05:59:07;66.50;;;35.30;;
68744;SDS011;55731;45.456;11.064;2022-10-16T06:01:44;60.90;;;32.50;;
68744;SDS011;55731;45.456;11.064;2022-10-16T06:04:21;62.60;;;33.20;;
68744;SDS011;55731;45.456;11.064;2022-10-16T06:07:00;68.10;;;35.30;;
68744;SDS011;55731;45.456;11.064;2022-10-16T06:09:36;66.60;;;33.50;;
68744;SDS011;55731;45.456;11.064;2022-10-16T06:12:12;66.10;;;33.70;;
68744;SDS011;55731;45.456;11.064;2022-10-16T06:14:48;65.70;;;34.30;;
68744;SDS011;55731;45.456;11.064;2022-10-16T06:17:26;65.10;;;34.50;;
68744;SDS011;55731;45.456;11.064;2022-10-16T06:20:02;70.40;;;34.80;;
68744;SDS011;55731;45.456;11.064;2022-10-16T06:22:41;67.10;;;34.30;;
68744;SDS011;55731;45.456;11.064;2022-10-16T06:25:18;71.30;;;36.00;;
68744;SDS011;55731;45.456;11.064;2022-10-16T06:27:55;68.60;;;35.60;;
68744;SDS011;55731;45.456;11.064;2022-10-16T06:30:32;72.40;;;35.80;;
68744;SDS011;55731;45.456;11.064;2022-10-16T06:33:09;60.90;;;34.10;;
68744;SDS011;55731;45.456;11.064;2022-10-16T06:35:45;61.10;;;33.30;;
68744;SDS011;55731;45.456;11.064;2022-10-16T06:38:22;61.80;;;34.30;;
68744;SDS011;55731;45.456;11.064;2022-10-16T06:40:59;64.40;;;35.50;;
68744;SDS011;55731;45.456;11.064;2022-10-16T06:43:36;70.40;;;36.10;;
68744;SDS011;55731;45.456;11.064;2022-10-16T06:46:14;64.90;;;36.30;;
68744;SDS011;55731;45.456;11.064;2022-10-16T06:48:52;72.20;;;35.90;;
68744;SDS011;55731;45.456;11.064;2022-10-16T06:51:29;64.10;;;35.70;;
68744;SDS011;55731;45.456;11.064;2022-10-16T06:54:11;64.70;;;34.30;;
68744;SDS011;55731;45.456;11.064;2022-10-16T06:56:49;60.00;;;33.00;;
68744;SDS011;55731;45.456;11.064;2022-10-16T06:59:27;70.00;;;36.00;;
68744;SDS011;55731;45.456;11.064;2022-10-16T07:02:04;66.60;;;34.90;;
68744;SDS011;55731;45.456;11.064;2022-10-16T07:04:42;68.40;;;36.40;;
68744;SDS011;55731;45.456;11.064;2022-10-16T07:07:19;66.10;;;36.00;;
68744;SDS011;55731;45.456;11.064;2022-10-16T07:09:58;65.10;;;35.70;;
68744;SDS011;55731;45.456;11.064;2022-10-16T07:12:34;67.30;;;35.50;;
68744;SDS011;55731;45.456;11.064;2022-10-16T07:15:13;64.90;;;35.60;;
68744;SDS011;55731;45.456;11.064;2022-10-16T07:17:49;71.60;;;36.40;;
68744;SDS011;55731;45.456;11.064;2022-10-16T07:20:27;63.80;;;34.50;;
68744;SDS011;55731;45.456;11.064;2022-10-16T07:23:03;67.70;;;35.90;;
68744;SDS011;55731;45.456;11.064;2022-10-16T07:25:39;65.50;;;34.40;;
68744;SDS011;55731;45.456;11.064;2022-10-16T07:28:16;69.40;;;35.30;;
68744;SDS011;55731;45.456;11.064;2022-10-16T07:30:52;67.80;;;35.70;;
68744;SDS011;55731;45.456;11.064;2022-10-16T07:33:29;66.40;;;37.30;;
68744;SDS011;55731;45.456;11.064;2022-10-16T07:36:07;69.10;;;36.70;;
68744;SDS011;55731;45.456;11.064;2022-10-16T07:38:46;69.10;;;37.10;;
68744;SDS011;55731;45.456;11.064;2022-10-16T07:41:29;66.40;;;36.50;;
68744;SDS011;55731;45.456;11.064;2022-10-16T07:44:08;71.30;;;36.10;;
68744;SDS011;55731;45.456;11.064;2022-10-16T07:46:45;66.20;;;35.50;;
68744;SDS011;55731;45.456;11.064;2022-10-16T07:49:21;71.20;;;36.40;;
68744;SDS011;55731;45.456;11.064;2022-10-16T07:51:57;66.20;;;36.40;;
68744;SDS011;55731;45.456;11.064;2022-10-16T07:54:34;71.50;;;36.90;;
68744;SDS011;55731;45.456;11.064;2022-10-16T07:57:11;71.70;;;36.80;;
68744;SDS011;55731;45.456;11.064;2022-10-16T07:59:50;69.30;;;37.60;;
68744;SDS011;55731;45.456;11.064;2022-10-16T08:02:27;66.30;;;37.10;;
68744;SDS011;55731;45.456;11.064;2022-10-16T08:05:06;75.20;;;38.40;;
68744;SDS011;55731;45.456;11.064;2022-10-16T08:07:43;72.80;;;38.40;;
68744;SDS011;55731;45.456;11.064;2022-10-16T08:10:27;64.40;;;36.70;;
68744;SDS011;55731;45.456;11.064;2022-10-16T08:13:03;73.20;;;37.50;;
68744;SDS011;55731;45.456;11.064;2022-10-16T08:15:40;68.80;;;37.50;;
68744;SDS011;55731;45.456;11.064;2022-10-16T08:18:17;74.00;;;37.80;;
68744;SDS011;55731;45.456;11.064;2022-10-16T08:20:59;72.30;;;38.80;;
68744;SDS011;55731;45.456;11.064;2022-10-16T08:23:36;72.60;;;37.80;;
68744;SDS011;55731;45.456;11.064;2022-10-16T08:26:13;64.90;;;38.50;;
68744;SDS011;55731;45.456;11.064;2022-10-16T08:28:53;69.60;;;38.40;;
68744;SDS011;55731;45.456;11.064;2022-10-16T08:31:30;62.50;;;35.20;;
68744;SDS011;55731;45.456;11.064;2022-10-16T08:34:06;69.90;;;36.40;;
68744;SDS011;55731;45.456;11.064;2022-10-16T08:36:43;61.70;;;34.90;;
68744;SDS011;55731;45.456;11.064;2022-10-16T08:39:21;64.60;;;36.10;;
68744;SDS011;55731;45.456;11.064;2022-10-16T08:42:07;71.60;;;38.90;;
68744;SDS011;55731;45.456;11.064;2022-10-16T08:45:31;69.20;;;37.00;;
68744;SDS011;55731;45.456;11.064;2022-10-16T08:48:29;66.10;;;36.30;;
68744;SDS011;55731;45.456;11.064;2022-10-16T08:51:10;66.90;;;35.50;;
68744;SDS011;55731;45.456;11.064;2022-10-16T08:53:56;63.70;;;36.60;;
68744;SDS011;55731;45.456;11.064;2022-10-16T08:56:36;63.50;;;36.20;;
68744;SDS011;55731;45.456;11.064;2022-10-16T08:59:16;73.20;;;38.90;;
68744;SDS011;55731;45.456;11.064;2022-10-16T09:01:53;67.40;;;39.40;;
68744;SDS011;55731;45.456;11.064;2022-10-16T09:04:46;62.10;;;36.60;;
68744;SDS011;55731;45.456;11.064;2022-10-16T09:07:46;66.10;;;35.50;;
68744;SDS011;55731;45.456;11.064;2022-10-16T09:10:38;65.00;;;37.30;;
68744;SDS011;55731;45.456;11.064;2022-10-16T09:13:29;70.50;;;37.90;;
68744;SDS011;55731;45.456;11.064;2022-10-16T09:16:17;69.70;;;38.60;;
68744;SDS011;55731;45.456;11.064;2022-10-16T09:19:04;70.10;;;38.70;;
68744;SDS011;55731;45.456;11.064;2022-10-16T09:21:48;66.60;;;37.30;;
68744;SDS011;55731;45.456;11.064;2022-10-16T09:24:27;65.20;;;38.20;;
68744;SDS011;55731;45.456;11.064;2022-10-16T09:27:04;71.90;;;38.70;;
68744;SDS011;55731;45.456;11.064;2022-10-16T09:29:43;67.30;;;38.80;;
68744;SDS011;55731;45.456;11.064;2022-10-16T09:32:21;60.10;;;36.00;;
68744;SDS011;55731;45.456;11.064;2022-10-16T09:34:58;68.00;;;38.10;;
68744;SDS011;55731;45.456;11.064;2022-10-16T09:37:35;68.50;;;38.70;;
68744;SDS011;55731;45.456;11.064;2022-10-16T09:40:28;73.60;;;37.90;;
68744;SDS011;55731;45.456;11.064;2022-10-16T09:46:27;65.90;;;37.40;;
68744;SDS011;55731;45.456;11.064;2022-10-16T09:49:18;68.00;;;38.60;;
68744;SDS011;55731;45.456;11.064;2022-10-16T09:52:11;64.90;;;38.00;;
68744;SDS011;55731;45.456;11.064;2022-10-16T09:54:53;68.80;;;37.20;;
68744;SDS011;55731;45.456;11.064;2022-10-16T09:57:32;68.10;;;36.70;;
68744;SDS011;55731;45.456;11.064;2022-10-16T10:00:15;72.30;;;38.90;;
68744;SDS011;55731;45.456;11.064;2022-10-16T10:02:52;72.60;;;39.20;;
68744;SDS011;55731;45.456;11.064;2022-10-16T10:05:30;66.30;;;38.70;;
68744;SDS011;55731;45.456;11.064;2022-10-16T10:08:12;66.20;;;38.00;;
68744;SDS011;55731;45.456;11.064;2022-10-16T10:10:52;66.80;;;38.70;;
68744;SDS011;55731;45.456;11.064;2022-10-16T10:13:29;65.90;;;37.90;;
68744;SDS011;55731;45.456;11.064;2022-10-16T10:16:07;66.50;;;38.10;;
68744;SDS011;55731;45.456;11.064;2022-10-16T10:19:00;71.40;;;40.00;;
68744;SDS011;55731;45.456;11.064;2022-10-16T10:21:41;71.90;;;40.70;;
68744;SDS011;55731;45.456;11.064;2022-10-16T10:24:19;69.70;;;38.90;;
68744;SDS011;55731;45.456;11.064;2022-10-16T10:27:00;60.80;;;36.40;;
68744;SDS011;55731;45.456;11.064;2022-10-16T10:29:52;60.90;;;36.60;;
68744;SDS011;55731;45.456;11.064;2022-10-16T10:32:41;62.40;;;36.50;;
68744;SDS011;55731;45.456;11.064;2022-10-16T10:35:32;58.30;;;34.50;;
